• Join FlightAware (Why Join?)
  • Login
  • US Flag 
06:55PM EDT


 

Airport Tracker/Info


-or-


 

Live Flight TrackerFlight Track Log ✈ UPS1055 ✈ 07-Oct-2013 ✈ KMHT - KPHL

Flight Track Log - Related Links

Times and Time Zones

All times are in EDT time to prevent confusion due to time zone crossing. See the UPS1055 flight status page for this flight to view local times or setup timezone preferences in your user account.

Time Position Orientation Groundspeed Altitude Reporting Facility
EDT Latitude Longitude Course Direction KTS MPH feet Rate Location/Type
10:42PM 42.9420 -71.4390 341° North 156 180 1,600  Level FlightAware
10:43PM 42.9570 -71.4450 344° North 166 191 2,400 2,520 Climbing FlightAware
10:43PM 42.9730 -71.4510 345° North 181 208 3,300 2,760 Climbing FlightAware
10:43PM 42.9897 -71.4603 338° Northwest 196 226 4,200 2,220 Climbing FlightAware ADS-B (KBOS)
10:44PM 43.0022 -71.4781 314° West 225 259 4,800 2,280 Climbing FlightAware ADS-B (KBOS)
10:44PM 43.0275 -71.5224 308° West 251 289 6,300 2,640 Climbing FlightAware ADS-B (KBOS)
10:44PM 43.0315 -71.5382 289° West 249 287 6,800 3,120 Climbing FlightAware ADS-B (KBOS)
10:45PM 43.0329 -71.5538 277° West 245 282 7,400 3,480 Climbing FlightAware ADS-B (KBOS)
10:45PM 43.0327 -71.5827 270° West 248 285 8,500 3,600 Climbing FlightAware ADS-B (KBOS)
10:45PM 43.0323 -71.6165 269° West 252 290 9,800 2,940 Climbing FlightAware ADS-B (KBOS)
10:46PM 43.0317 -71.6644 269° West 272 313 11,000 2,160 Climbing FlightAware ADS-B (KBOS)
10:46PM 43.0307 -71.7101 268° West 301 346 12,000 2,340 Climbing FlightAware ADS-B (KBOS)
10:47PM 43.0296 -71.7973 269° West 315 362 13,700 2,700 Climbing FlightAware ADS-B (KBOS)
10:48PM 43.0280 -71.8920 269° West 323 372 15,900 2,760 Climbing FlightAware
10:48PM 43.0260 -71.9970 269° West 329 379 18,200 2,520 Climbing FlightAware
10:49PM 43.0261 -72.0183 270° West 338 389 19,700 2,220 Climbing FlightAware ADS-B (KSNC)
10:50PM 43.0235 -72.1570 269° West 343 395 21,000 1,980 Climbing FlightAware ADS-B (KSNC)
10:50PM 43.0223 -72.2240 269° West 349 402 21,900 2,160 Climbing FlightAware ADS-B (KSNC)
10:51PM 43.0206 -72.3112 269° West 342 394 23,500 2,460 Climbing FlightAware ADS-B (KSNC)
10:52PM 43.0190 -72.4000 269° West 337 388 25,200 2,280 Climbing FlightAware
10:52PM 43.0170 -72.4730 268° West 335 386 26,400 1,980 Climbing FlightAware
10:53PM 43.0160 -72.5320 269° West 334 384 27,300 1,380 Climbing FlightAware
10:53PM 43.0140 -72.6160 268° West 333 383 28,000 840 Climbing FlightAware
10:53PM 43.0136 -72.6321 268° West 334 384 28,000  Level FlightAware ADS-B (KSNC)
10:54PM 43.0020 -72.7590 263° West 317 365 28,000  Level FlightAware
10:55PM 42.9870 -72.8097 248° West 317 365 28,000  Level FlightAware ADS-B (KSNC)
10:56PM 42.9570 -72.8940 244° Southwest 318 366 28,000  Level FlightAware
10:56PM 42.9340 -72.9550 243° Southwest 321 369 28,000  Level FlightAware
10:57PM 42.9130 -73.0150 244° Southwest 319 367 28,000  Level FlightAware
10:57PM 42.8890 -73.0810 244° Southwest 319 367 28,000  Level FlightAware
10:58PM 42.8660 -73.1420 243° Southwest 320 368 28,000  Level FlightAware
10:58PM 42.8430 -73.2040 243° Southwest 317 365 28,000  Level FlightAware
10:59PM 42.8200 -73.2670 244° Southwest 318 366 28,000  Level FlightAware
11:00PM 42.7940 -73.3350 242° Southwest 319 367 28,000  Level FlightAware
11:00PM 42.7730 -73.3900 243° Southwest 320 368 28,000  Level FlightAware
11:01PM 42.7470 -73.4600 243° Southwest 321 369 28,000  Level FlightAware
11:01PM 42.7230 -73.5260 244° Southwest 319 367 28,000  Level FlightAware
11:02PM 42.7020 -73.5800 242° Southwest 317 365 28,000  Level FlightAware
11:02PM 42.6945 -73.6009 244° Southwest 317 365 28,000 -480 Level FlightAware ADS-B (KSNC)
11:03PM 42.6570 -73.7010 243° Southwest 321 369 27,500 -840 Descending FlightAware
11:04PM 42.6310 -73.7710 243° Southwest 307 353 26,800 -1,080 Descending FlightAware
11:04PM 42.6120 -73.8240 244° Southwest 300 345 26,300 -720 Descending FlightAware
11:05PM 42.5900 -73.8830 243° Southwest 298 343 26,000 -240 Descending FlightAware
11:06PM 42.5640 -73.9530 243° Southwest 305 351 26,000  Level FlightAware
11:06PM 42.5430 -74.0100 243° Southwest 310 357 26,000  Level FlightAware
11:07PM 42.5240 -74.0580 242° Southwest 309 356 26,000  Level FlightAware
11:07PM 42.4970 -74.1300 243° Southwest 314 361 26,000  Level FlightAware
11:08PM 42.4720 -74.1960 243° Southwest 312 359 26,000  Level FlightAware
11:09PM 42.4470 -74.2630 243° Southwest 313 360 26,000  Level FlightAware
11:09PM 42.4210 -74.3310 243° Southwest 310 357 26,000  Level FlightAware
11:10PM 42.3990 -74.3870 242° Southwest 302 348 26,000  Level FlightAware
11:10PM 42.3770 -74.4450 243° Southwest 303 349 26,000  Level FlightAware
11:11PM 42.3530 -74.5060 242° Southwest 306 352 26,000  Level FlightAware
11:12PM 42.3270 -74.5740 243° Southwest 308 354 26,000  Level FlightAware
11:12PM 42.3010 -74.6400 242° Southwest 310 357 26,000  Level FlightAware
11:13PM 42.2770 -74.7030 243° Southwest 313 360 26,000  Level FlightAware
11:13PM 42.2570 -74.7540 242° Southwest 312 359 26,000  Level FlightAware
11:14PM 42.2310 -74.8220 243° Southwest 313 360 26,000  Level FlightAware
11:14PM 42.2090 -74.8770 242° Southwest 313 360 26,000 -120 Level FlightAware
11:15PM 42.1840 -74.9400 242° Southwest 310 357 25,900 -720 Descending FlightAware
11:15PM 42.1670 -74.9640 226° Southwest 309 356 25,400 -2,280 Descending FlightAware
11:16PM 42.1180 -75.0060 212° Southwest 345 397 23,800 -2,580 Descending FlightAware
11:17PM 42.0660 -75.0480 211° Southwest 361 415 22,200 -2,700 Descending FlightAware
11:17PM 42.0180 -75.0870 211° Southwest 358 412 20,700 -2,100 Descending FlightAware
11:18PM 41.9670 -75.1290 211° Southwest 347 399 19,800 -1,380 Descending FlightAware
11:18PM 41.9230 -75.1660 212° Southwest 343 395 19,100 -720 Descending FlightAware
11:19PM 41.8750 -75.2050 211° Southwest 346 398 19,000 -120 Descending FlightAware
11:20PM 41.8240 -75.2460 211° Southwest 344 396 19,000  Level FlightAware
11:20PM 41.7770 -75.2840 211° Southwest 344 396 19,000  Level FlightAware
11:21PM 41.7320 -75.3210 212° Southwest 344 396 19,000  Level FlightAware
11:21PM 41.6780 -75.3650 211° Southwest 338 389 19,000  Level FlightAware
11:22PM 41.6330 -75.4020 212° Southwest 340 391 19,000  Level FlightAware
11:23PM 41.5810 -75.4430 211° Southwest 340 391 19,000  Level FlightAware
11:23PM 41.5330 -75.4820 211° Southwest 337 388 19,000  Level FlightAware
11:24PM 41.4860 -75.5200 211° Southwest 343 395 19,000  Level FlightAware
11:24PM 41.4300 -75.5650 211° Southwest 344 396 19,000  Level FlightAware
11:25PM 41.3900 -75.5970 211° Southwest 340 391 19,000  Level FlightAware
11:25PM 41.3460 -75.6320 211° Southwest 343 395 19,000  Level FlightAware
11:26PM 41.2890 -75.6760 210° Southwest 340 391 19,000  Level FlightAware
11:27PM 41.2430 -75.7030 204° Southwest 336 387 19,000  Level FlightAware
11:27PM 41.1970 -75.7420 213° Southwest 337 388 19,000 -480 Level FlightAware
11:28PM 41.1500 -75.7820 213° Southwest 332 382 18,500 -1,680 Descending FlightAware
11:28PM 41.1010 -75.8230 212° Southwest 327 376 17,000 -2,400 Descending FlightAware
11:29PM 41.0610 -75.8560 212° Southwest 327 376 15,800 -2,280 Descending FlightAware
11:29PM 41.0370 -75.8660 197° South 336 387 15,200 -2,160 Descending FlightAware
11:30PM 41.0100 -75.8670 182° South 346 398 14,600 -1,980 Descending FlightAware
11:30PM 40.9800 -75.8570 166° South 354 407 14,000 -1,860 Descending FlightAware
11:30PM 40.9330 -75.8280 155° Southeast 348 400 13,000 -1,800 Descending FlightAware
11:31PM 40.8840 -75.7890 149° Southeast 339 390 12,000 -2,100 Descending FlightAware
11:32PM 40.8380 -75.7500 147° Southeast 339 390 10,600 -1,920 Descending FlightAware
11:32PM 40.8000 -75.7200 149° Southeast 343 395 10,000 -1,020 Descending FlightAware
11:32PM 40.7830 -75.7060 148° Southeast 344 396 9,900 -180 Descending FlightAware
11:33PM 40.7510 -75.6800 148° Southeast 342 394 9,900  Level FlightAware
11:33PM 40.7230 -75.6570 148° Southeast 346 398 9,900  Level FlightAware
11:33PM 40.6940 -75.6320 147° Southeast 342 394 9,900  Level FlightAware
11:34PM 40.6720 -75.6140 148° Southeast 343 395 9,900  Level FlightAware
11:34PM 40.6420 -75.5890 148° Southeast 343 395 9,900  Level FlightAware
11:34PM 40.6120 -75.5640 148° Southeast 344 396 9,900  Level FlightAware
11:35PM 40.5850 -75.5420 148° Southeast 326 375 9,900  Level FlightAware
11:35PM 40.5550 -75.5170 148° Southeast 299 344 9,900  Level FlightAware
11:35PM 40.5370 -75.5020 148° Southeast 291 335 9,900  Level FlightAware
11:36PM 40.5100 -75.4810 149° Southeast 295 339 9,900  Level FlightAware
11:36PM 40.4770 -75.4540 148° Southeast 296 341 9,900  Level FlightAware
11:36PM 40.4580 -75.4390 149° Southeast 294 338 9,900  Level FlightAware
11:37PM 40.4350 -75.4230 152° Southeast 296 341 9,900  Level FlightAware
11:37PM 40.4100 -75.4090 157° South 293 337 9,900  Level FlightAware
11:37PM 40.3810 -75.3920 156° South 290 334 9,900  Level FlightAware
11:38PM 40.3510 -75.3750 157° South 293 337 9,900  Level FlightAware
11:38PM 40.3260 -75.3610 157° South 293 337 9,900  Level FlightAware
11:38PM 40.3130 -75.3530 155° Southeast 292 336 9,900  Level FlightAware
11:39PM 40.2850 -75.3370 156° South 292 336 9,900 -960 Level FlightAware
11:39PM 40.2580 -75.3160 149° Southeast 295 339 9,200 -2,160 Descending FlightAware
11:39PM 40.2370 -75.3000 150° Southeast 295 339 8,400 -2,400 Descending FlightAware
11:40PM 40.2100 -75.2780 148° Southeast 285 328 7,600 -2,160 Descending FlightAware
11:40PM 40.1880 -75.2600 148° Southeast 283 326 6,900 -2,340 Descending FlightAware
11:40PM 40.1660 -75.2430 149° Southeast 282 325 6,100 -2,340 Descending FlightAware
11:41PM 40.1440 -75.2280 152° Southeast 278 320 5,400 -2,220 Descending FlightAware
11:41PM 40.1140 -75.2080 153° Southeast 282 325 4,400 -2,580 Descending FlightAware
11:42PM 40.0900 -75.1930 154° Southeast 297 342 3,500 -1,920 Descending FlightAware
11:42PM 40.0630 -75.1770 156° South 294 338 3,100 -840 Descending FlightAware
11:42PM 40.0380 -75.1620 155° Southeast 279 321 2,900 -360 Descending FlightAware
11:43PM 40.0190 -75.1500 154° Southeast 257 296 2,900  Level FlightAware
11:43PM 39.9920 -75.1310 152° Southeast 233 268 2,900  Level FlightAware
11:43PM 39.9770 -75.1150 141° Southeast 208 239 2,900  Level FlightAware
11:44PM 39.9630 -75.1000 141° Southeast 192 221 2,900  Level FlightAware
11:44PM 39.9500 -75.0810 132° Southeast 191 220 2,900  Level FlightAware
11:44PM 39.9410 -75.0710 140° Southeast 190 219 2,900  Level FlightAware
11:45PM 39.9300 -75.0620 148° Southeast 176 203 2,900  Level FlightAware
11:45PM 39.9220 -75.0580 159° South 170 196 2,900  Level FlightAware
11:45PM 39.9180 -75.0570 169° South 168 193 2,900 -240 Level FlightAware
11:45PM 39.9020 -75.0630 196° South 148 170 2,800 -420 Descending FlightAware
11:45PM 39.8990 -75.0680 232° Southwest 129 148 2,700 -720 Descending FlightAware
11:45PM 39.8990 -75.0750 270° West 119 137 2,600 -660 Descending FlightAware
11:46PM 39.8970 -75.0890 259° West 127 146 2,400 -780 Descending FlightAware
11:46PM 39.8940 -75.1050 256° West 127 146 2,100 -840 Descending FlightAware
11:46PM 39.8910 -75.1220 257° West 128 147 1,800 -720 Descending FlightAware
11:47PM 39.8870 -75.1430 256° West 130 150 1,500 -720 Descending FlightAware
11:47PM 39.8850 -75.1520 254° West 128 147 1,300 -660 Descending FlightAware
11:48PM 39.8800 -75.1780 256° West 118 136 1,000 -720 Descending FlightAware
11:48PM 39.8770 -75.1910 253° West 119 137 700 -780 Descending FlightAware
11:48PM 39.8750 -75.2040 259° West 118 136 500 -300 Descending FlightAware
11:49PM 39.8720 -75.2190 255° West 118 136 500 8,460 Level FlightAware
11:50PM 39.8678 -75.2550 255° West 125 144 10,000 5,700 Climbing New York Center
11:51PM 39.8617 -75.3033 261° West 125 144 10,000  Level New York Center
11:52PM 39.8536 -75.3489 257° West 125 144 10,000  Level New York Center
11:53PM 39.8478 -75.3972 261° West 125 144 10,000  Level New York Center
11:54PM 39.8425 -75.4239 256° West 125 144 10,000  Level New York Center
11:56PM 39.8667 -75.2333 72° East  Level FlightAware Approximate
12:03AM 39.8722 -75.2409 72° East  Level Estimated
12:04AM 39.8722 -75.2409 72° East  Level Estimated
12:05AM 39.8722 -75.2409 72° East  Level Estimated
12:06AM 39.8722 -75.2409 72° East  Level Estimated
12:07AM 39.8722 -75.2409 72° East  Level Estimated
12:08AM 39.8722 -75.2409 72° East  Level Estimated